ADDS TAF Board (Experimental) INFO Settings
IDs: Format: Expanded Condensed

KCLT - Charlotte/Douglas In, NC, US

Issued at 1734 UTC 30 Aug 2015
Updated at: 1955 UTC 30 Aug 2015
Time1952Z 30/20Z 30/21Z 30/22Z 30/23Z 31/00Z 31/01Z 31/02Z 31/03Z 31/04Z 31/05Z 31/06Z 31/07Z 31/08Z
Type OBS PRVL
  [TEMP]  
PRVL
  [TEMP]  
PRVL
  [TEMP]  
PRVL
  [TEMP]  
PRVL PRVL PRVL PRVL PRVL PRVL PRVL PRVL PRVL
VIS 10 >6
  [6.21]  
>6
  [6.21]  
>6
  [6.21]  
>6
  [6.21]  
4 4 4 >6 >6 >6 >6 >6 >6
CIG 100 110
  [60]  
110
  [60]  
110
  [60]  
110
  [60]  
50 50 50 35 35 35 16 16 16
Cover OVC OVC
  [OVC]  
OVC
  [OVC]  
OVC
  [OVC]  
OVC
  [OVC]  
OVC OVC OVC OVC OVC OVC BKN BKN BKN
FltCat VFR VFR
  [VFR]  
VFR
  [VFR]  
VFR
  [VFR]  
VFR
  [VFR]  
MVFR MVFR MVFR VFR VFR VFR MVFR MVFR MVFR
WX -- VCSH
  [-SHRA]  
VCSH
  [-SHRA]  
VCSH
  [-SHRA]  
VCSH
  [-SHRA]  
SHRA BR SHRA BR SHRA BR VCSH VCSH VCSH -- -- --
WDir 140 120
[120]
120
[120]
120
[120]
120
[120]
150 150 150 160 160 160 160 160 160
WSpd 7 3
  [3]  
3
  [3]  
3
  [3]  
3
  [3]  
5 5 5 4 4 4 3 3 3
WGst -- --
  [--]  
--
  [--]  
--
  [--]  
--
  [--]  
-- -- -- -- -- -- -- -- --
R05/23
XWnd -7 -3 -3 -3 -3 -5 -5 -5 -4 -4 -4 -3 -3 -3
XGst -- 0 0 0 0 -- -- -- -- -- -- -- -- --
HWnd -0 1 1 1 1 -1 -1 -1 -1 -1 -1 -1 -1 -1
HGst -- 0 0 0 0 -- -- -- -- -- -- -- -- --
R18/36
XWnd 4 2 2 2 2 2 2 2 1 1 1 1 1 1
XGst -- 0 0 0 0 -- -- -- -- -- -- -- -- --
HWnd 6 2 2 2 2 4 4 4 4 4 4 3 3 3
HGst -- 0 0 0 0 -- -- -- -- -- -- -- -- --

NOTE: TEMPO conditions in [brackets]. Keep in mind TEMPO conditions might be better (lower impact) than prevailing conditions.

Raw TAF
KCLT 301734Z 3018/3118 12003KT P6SM VCSH BKN110 OVC150
  TEMPO 3020/3024 P6SM -SHRA BKN060 OVC100
  FM310000 15005KT 4SM SHRA BR SCT015 OVC050
  FM310300 16004KT P6SM VCSH OVC035
  FM310600 16003KT P6SM SCT008 BKN016
  FM311500 06003KT P6SM BKN050


Raw METAR
KCLT 301952Z 14007KT 10SM BKN100 OVC250 27/13 A3014 RMK AO2 SLP198 T02720128
KCLT 301852Z VRB03KT 10SM OVC120 27/14 A3016 RMK AO2 RAE48 SLP204 P0000 T02720144
KCLT 301752Z 14004KT 10SM -RA BKN120 26/14 A3018 RMK AO2 RAB20 SLP210 P0000 60000 T02610144 10278 20211 58008
KCLT 301652Z 00000KT 10SM BKN100 OVC140 27/14 A3019 RMK AO2 SLP213 T02720139

METAR Board
Radar Display
Forecast Discussion

TAF Board Legend

Potential Impact
Threat None Slight Moderate High
Visibility (sm) ≥5.1 5.1>X≥3 3>X≥1 <1
Ceiling (100 ft) ≥30.1 30.1>X≥10 10>X≥5 <5
Wind Speed (kt) <10 10≤X<20 20≤X<30 ≥30
Wind Gust (kt) <15 15≤X<25 25≤X<35 ≥35
Weather No Wx Reported VCTS,-TS,-FZRA,SN TS,FZRA +TS,+FZRA,+SN